注册 登录  
 加关注
   显示下一条  |  关闭
温馨提示!由于新浪微博认证机制调整,您的新浪微博帐号绑定已过期,请重新绑定!立即重新绑定新浪微博》  |  关闭

Only 2 Hearts

can group my wings for flying

 
 
 

日志

 
 

《返神.神返》 D0 2007.11.2 成行之前  

2007-12-13 23:19:14|  分类: 07云南求婚 |  标签: |举报 |字号 订阅

  下载LOFTER 我的照片书  |

 

2006.11.13,農曆9月23日。

去年才剛到卡瓦格博前看著星空,就開始注意這個日子

2007.11.2,農曆9月23日。

這幾個數字,形狀就好像出發二字

因此,就已經計畫好要做什麼 並一直準備著

 

2007.3,航班時刻表換季了,就開始一直期盼下一次換季

但是卻一直沒有航班計畫

於是,每天就關注這個就在冬春季剛開始的日子

終於,SOC的計畫一出,雖然時刻不對,但不猶豫就拿下兩個R艙

 

然後就是一段令我說出很多惡毒語言的恐怖故事

年假的暫停,令人窒息的氛圍,艱辛的談判,難以想像地調整心情,並堅持著

 

卡瓦格博力量真的驚人

 

2007.11.2 除了一些很神秘的東西 其他一切如常

 

AGM

AN B-6200/FI CZ3417

-[SA ZPDQ] METAR ZPDQ 012300Z VRB01MPS 9999 FEW040 M04/M07 Q1030 NOSIG =

[FC ZPDQ] TAF ZPDQ 012035Z 012106 16002M PS CAVOK=

 

一片預期中的天空

其實 充其量也只是看過兩次而已

一段一生人每年都希望飛一次的航程

其實 充其量也只是飛過兩次而已

一條閉著眼就能做到的擦著玉龍雪山山間而過

可以遠眺稻城三神山的進近

其實 充其量也只是16ILS和34VORDME每個一次而已

一個駐地外到過最多次數的縣城

其實 充其量也只是到過三次而已

以為熟悉到能背的214國道

其實 充其量也只是走過兩次而已

所以期待 還是依然新鮮

期待明永的星空 期待冰冷的空氣沖刷高反的舒適

期待茨中教堂的鐘聲 期待聖誕般的瑞雪

期待一個毫不猶豫的點頭

  评论这张
 
阅读(73)| 评论(1)
推荐 转载

历史上的今天

在LOFTER的更多文章

评论

<#--最新日志,群博日志--> <#--推荐日志--> <#--引用记录--> <#--博主推荐--> <#--随机阅读--> <#--首页推荐--> <#--历史上的今天--> <#--被推荐日志--> <#--上一篇,下一篇--> <#-- 热度 --> <#-- 网易新闻广告 --> <#--右边模块结构--> <#--评论模块结构--> <#--引用模块结构--> <#--博主发起的投票-->
 
 
 
 
 
 
 
 
 
 
 
 
 
 

页脚

网易公司版权所有 ©1997-2017